Latest Weather Observations for Kanagulk

IDV60801

Issued at 11:02 pm EST Monday 25 May 2015 (issued every 30 minutes, with the page automatically refreshed every 10 minutes)

About weather observations | Map of weather stations | Latest weather observations for VIC | Other Formats
Station Details ID: 079097 Name: KANAGULK Lat: -37.12 Lon: 141.80 Height: 188.8 m
Data from the previous 72 hours. | See also: Recent months at Kanagulk
Date/Time
EST
Temp
°C
App
Temp
°C
Dew
Point
Rel
Hum
%
Delta-T
°C
Wind Press
QNH
hPa
Press
MSL
hPa
Rain
since 9 am
mm
Dir
 
Spd
km/h
Gust
km/h
Spd
kts
Gust
kts
25/11:00pm 6.0 4.2 5.4 96 0.3 E 4 6 2 3 1029.1 1029.3 0.0
25/10:30pm 6.5 4.4 5.8 95 0.3 E 6 7 3 4 1029.2 1029.4 0.0
25/10:00pm 6.8 4.7 5.9 94 0.4 E 6 7 3 4 1029.3 1029.5 0.0
25/09:30pm 7.1 4.8 5.9 92 0.5 E 7 9 4 5 1029.3 1029.5 0.0
25/09:00pm 7.3 4.7 6.1 92 0.5 E 9 9 5 5 1029.3 1029.5 0.0
25/08:30pm 7.4 5.3 5.9 90 0.7 ENE 6 6 3 3 1029.3 1029.5 0.0
25/08:00pm 8.0 5.9 6.0 87 0.9 ENE 6 7 3 4 1029.3 1029.5 0.0
25/07:30pm 8.5 6.5 6.3 86 1.0 E 6 7 3 4 1029.1 1029.3 0.0
25/07:00pm 9.1 7.5 6.2 82 1.3 E 4 6 2 3 1029.1 1029.3 0.0
25/06:30pm 10.1 8.8 6.1 76 1.9 ESE 2 6 1 3 1028.8 1029.0 0.0
25/06:00pm 11.4 9.3 6.5 72 2.3 ENE 7 7 4 4 1028.5 1028.7 0.0
25/05:30pm 12.8 10.9 7.5 70 2.6 NE 7 9 4 5 1028.1 1028.2 0.0
25/05:00pm 14.4 12.2 7.7 64 3.3 NNE 9 11 5 6 1027.9 1028.0 0.0
25/04:30pm 15.7 13.3 7.0 56 4.3 NE 9 15 5 8 1027.8 1027.9 0.0
25/04:00pm 16.3 14.3 7.3 55 4.5 NE 7 13 4 7 1027.8 1027.9 0.0
25/03:30pm 16.4 13.8 7.6 56 4.5 NNE 11 15 6 8 1028.0 1028.1 0.0
25/03:00pm 16.5 14.5 7.2 54 4.6 NNE 7 11 4 6 1028.0 1028.1 0.0
25/02:30pm 16.4 14.1 7.6 56 4.5 NNE 9 15 5 8 1028.2 1028.3 0.0
25/02:00pm 16.4 14.2 7.9 57 4.3 NE 9 19 5 10 1028.4 1028.6 0.0
25/01:30pm 16.0 14.2 8.0 59 4.1 NE 7 15 4 8 1028.7 1028.9 0.0
25/01:00pm 15.6 13.4 7.9 60 3.9 NE 9 15 5 8 1029.1 1029.3 0.0
25/12:30pm 14.7 12.4 7.5 62 3.6 NE 9 13 5 7 1029.6 1029.8 0.0
25/12:00pm 14.1 11.5 7.9 66 3.1 NE 11 15 6 8 1030.1 1030.2 0.0
25/11:30am 12.4 9.8 7.7 73 2.3 NE 11 15 6 8 1030.7 1030.8 0.0
25/11:00am 11.8 9.1 7.5 75 2.1 NE 11 15 6 8 1030.9 1031.0 0.0
25/10:30am 10.9 8.3 7.6 80 1.6 NE 11 13 6 7 1031.0 1031.1 0.0
25/10:00am 10.4 8.1 7.6 83 1.3 NNE 9 15 5 8 1031.0 1031.1 0.0
25/09:30am 9.6 7.0 7.9 89 0.8 NNE 11 15 6 8 1030.8 1030.9 0.0
25/09:00am 8.8 6.3 8.0 95 0.4 NE 11 15 6 8 1030.5 1030.6 0.0
25/08:00am 6.8 4.8 6.2 96 0.3 ENE 6 7 3 4 1030.7 1030.8 0.0
25/07:30am 6.4 3.4 6.0 97 0.2 NE 11 15 6 8 1030.4 1030.5 0.0
25/07:00am 6.8 4.8 6.4 97 0.2 NE 6 7 3 4 1030.4 1030.5 0.0
25/06:30am 6.5 4.3 6.1 97 0.2 ENE 7 9 4 5 1030.1 1030.2 0.0
25/06:00am 6.7 4.5 6.3 97 0.2 ENE 7 9 4 5 1030.1 1030.2 0.0
25/05:30am 6.6 4.5 6.0 96 0.3 E 6 7 3 4 1030.2 1030.3 0.0
25/05:00am 6.5 4.4 5.8 95 0.3 SSE 6 9 3 5 1030.2 1030.3 0.0
25/04:30am 6.7 5.4 6.0 95 0.3 S 2 7 1 4 1029.9 1030.0 0.0
25/04:00am 7.0 5.8 6.3 95 0.3 SSE 2 6 1 3 1029.6 1029.8 0.0
25/03:30am 6.8 5.9 6.2 96 0.3 CALM 0 2 0 1 1029.5 1029.7 0.0
25/03:00am 6.5 3.5 5.9 96 0.3 N 11 13 6 7 1029.7 1029.9 0.0
25/02:30am 6.6 5.7 6.0 96 0.3 CALM 0 0 0 0 1029.4 1029.6 0.0
25/02:00am 6.2 4.0 5.5 95 0.3 ESE 6 9 3 5 1029.0 1029.2 0.0
25/01:30am 6.9 5.6 6.2 95 0.3 ESE 2 7 1 4 1029.2 1029.4 0.0
25/01:00am 7.0 4.8 6.3 95 0.3 NE 7 9 4 5 1029.5 1029.7 0.0
25/12:30am 6.6 5.7 5.9 95 0.3 CALM 0 0 0 0 1030.0 1030.1 0.0
25/12:00am 6.5 4.4 5.8 95 0.3 NE 6 7 3 4 1030.0 1030.1 0.0
 
Date/Time
EST
Temp
°C
App
Temp
°C
Dew
Point
Rel
Hum
%
Delta-T
°C
Wind Press
QNH
hPa
Press
MSL
hPa
Rain
since 9 am
mm
Dir
 
Spd
km/h
Gust
km/h
Spd
kts
Gust
kts
24/11:30pm 6.8 5.9 5.9 94 0.4 CALM 0 0 0 0 1030.1 1030.2 0.0
24/11:00pm 6.8 5.9 5.9 94 0.4 CALM 0 0 0 0 1030.0 1030.1 0.0
24/10:30pm 6.9 6.0 6.0 94 0.4 CALM 0 0 0 0 1030.2 1030.3 0.0
24/10:00pm 6.9 5.6 6.2 95 0.3 NE 2 11 1 6 1030.3 1030.4 0.0
24/09:30pm 6.5 5.5 5.6 94 0.4 CALM 0 0 0 0 1030.4 1030.5 0.0
24/09:00pm 7.1 6.2 6.0 93 0.5 CALM 0 0 0 0 1030.3 1030.4 0.0
24/08:30pm 7.2 6.3 6.0 92 0.5 CALM 0 0 0 0 1030.1 1030.2 0.0
24/08:00pm 7.3 6.3 5.8 90 0.7 CALM 0 0 0 0 1030.1 1030.2 0.0
24/07:30pm 7.1 6.0 5.3 88 0.8 CALM 0 0 0 0 1030.1 1030.2 0.0
24/07:00pm 8.0 7.0 5.6 85 1.1 CALM 0 0 0 0 1029.9 1030.0 0.0
24/06:30pm 8.8 7.9 5.9 82 1.3 CALM 0 0 0 0 1029.7 1029.9 0.0
24/06:00pm 9.1 8.1 5.7 79 1.6 CALM 0 0 0 0 1029.4 1029.6 0.0
24/05:30pm 10.4 7.9 6.5 77 1.8 NNE 9 11 5 6 1029.1 1029.3 0.0
24/05:00pm 11.2 8.6 6.1 71 2.4 N 9 11 5 6 1029.0 1029.2 0.0
24/04:30pm 11.9 9.4 6.4 69 2.6 NNE 9 11 5 6 1029.1 1029.3 0.0
24/04:00pm 13.1 10.5 6.2 63 3.3 N 9 13 5 7 1029.2 1029.4 0.0
24/03:30pm 12.7 9.0 6.1 64 3.2 N 15 20 8 11 1028.9 1029.1 0.0
24/03:00pm 12.5 9.6 6.5 67 2.9 NNE 11 13 6 7 1029.0 1029.2 0.0
24/02:30pm 12.4 9.8 6.2 66 3.0 N 9 17 5 9 1029.2 1029.4 0.0
24/02:00pm 12.6 9.3 6.6 67 2.9 N 13 17 7 9 1029.3 1029.5 0.0
24/01:30pm 12.8 9.5 6.6 66 3.0 N 13 19 7 10 1029.5 1029.7 0.0
24/01:00pm 13.1 9.9 6.9 66 3.0 N 13 20 7 11 1029.9 1030.0 0.0
24/12:30pm 12.0 8.5 7.1 72 2.4 N 15 19 8 10 1030.0 1030.1 0.0
24/12:00pm 11.3 7.4 7.2 76 2.0 NNE 17 22 9 12 1030.3 1030.4 0.0
24/11:30am 10.8 7.8 9.1 89 0.9 NNE 15 20 8 11 1030.6 1030.7 0.0
24/11:00am 9.4 6.0 9.3 99 0.0 NNE 17 22 9 12 1030.6 1030.7 0.0
24/10:30am 8.3 4.7 8.2 99 0.0 NE 17 20 9 11 1030.8 1030.9 0.0
24/10:00am 6.9 2.9 6.8 99 0.0 NNE 17 20 9 11 1031.1 1031.2 0.0
24/09:30am 5.8 2.0 5.7 99 0.0 NNE 15 19 8 10 1031.2 1031.3 0.0
24/09:00am 4.1 1.6 4.0 99 0.0 NE 6 9 3 5 1031.0 1031.1 0.0
24/08:30am 2.2 0.5 2.1 99 0.0 CALM 0 0 0 0 1030.9 1031.0 0.0
24/08:00am 1.9 0.2 1.8 99 0.0 CALM 0 2 0 1 1030.7 1030.8 0.0
24/07:30am 1.0 -2.0 0.9 99 0.0 NE 6 7 3 4 1030.5 1030.6 0.0
24/07:00am -0.3 -2.3 -0.4 99 0.0 CALM 0 0 0 0 1030.4 1030.5 0.0
24/06:30am -0.5 -2.6 -0.6 99 0.0 CALM 0 0 0 0 1030.2 1030.3 0.0
24/06:00am 0.3 -1.7 0.2 99 0.0 CALM 0 0 0 0 1029.9 1030.0 0.0
24/05:30am 0.8 -1.1 0.7 99 0.0 CALM 0 0 0 0 1029.9 1030.0 0.0
24/05:00am 0.7 -1.2 0.6 99 0.0 CALM 0 0 0 0 1029.5 1029.7 0.0
24/04:30am 1.1 -0.7 1.0 99 0.0 CALM 0 0 0 0 1029.2 1029.4 0.0
24/04:00am 0.3 -1.7 0.2 99 0.0 CALM 0 0 0 0 1029.3 1029.5 0.0
24/03:30am 0.1 -1.9 0.0 99 0.0 CALM 0 0 0 0 1029.3 1029.5 0.0
24/03:00am 1.7 0.0 1.6 99 0.0 CALM 0 0 0 0 1029.4 1029.6 0.0
24/02:30am 1.2 -0.6 1.1 99 0.0 CALM 0 0 0 0 1029.3 1029.5 0.0
24/02:00am 2.1 0.4 2.0 99 0.0 CALM 0 0 0 0 1029.3 1029.5 0.0
24/01:30am 2.1 0.4 2.0 99 0.0 CALM 0 0 0 0 1029.3 1029.5 0.0
24/01:00am 1.9 0.2 1.8 99 0.0 CALM 0 0 0 0 1029.6 1029.8 0.0
24/12:30am 3.2 1.7 3.1 99 0.0 CALM 0 0 0 0 1029.5 1029.7 0.0
24/12:00am 3.1 1.6 3.0 99 0.0 CALM 0 0 0 0 1029.7 1029.9 0.0
 
Date/Time
EST
Temp
°C
App
Temp
°C
Dew
Point
Rel
Hum
%
Delta-T
°C
Wind Press
QNH
hPa
Press
MSL
hPa
Rain
since 9 am
mm
Dir
 
Spd
km/h
Gust
km/h
Spd
kts
Gust
kts
23/11:30pm 2.9 1.4 2.8 99 0.0 CALM 0 0 0 0 1029.7 1029.9 0.0
23/11:00pm 4.3 3.0 4.2 99 0.0 CALM 0 0 0 0 1029.9 1030.0 0.0
23/10:30pm 4.8 3.6 4.7 99 0.0 CALM 0 0 0 0 1030.1 1030.2 0.0
23/10:00pm 4.0 2.6 3.7 98 0.1 CALM 0 0 0 0 1030.3 1030.4 0.0
23/09:30pm 3.8 2.3 3.1 95 0.3 CALM 0 0 0 0 1030.3 1030.4 0.0
23/09:00pm 5.3 4.1 4.7 96 0.3 CALM 0 6 0 3 1030.4 1030.5 0.0
23/08:30pm 5.7 4.6 5.0 95 0.3 CALM 0 0 0 0 1030.7 1030.8 0.0
23/08:00pm 5.5 4.3 4.5 93 0.4 CALM 0 0 0 0 1030.7 1030.8 0.0
23/07:30pm 5.2 3.5 3.9 91 0.6 SSW 2 7 1 4 1030.6 1030.7 0.0
23/07:00pm 6.4 5.2 4.4 87 0.9 CALM 0 0 0 0 1030.4 1030.5 0.0
23/06:30pm 6.8 5.5 4.1 83 1.2 CALM 0 0 0 0 1030.3 1030.4 0.0
23/06:00pm 7.7 6.3 3.7 76 1.7 CALM 0 0 0 0 1030.2 1030.3 0.0
23/05:30pm 9.4 8.1 4.2 70 2.3 CALM 0 0 0 0 1030.1 1030.2 0.0
23/05:00pm 11.7 10.6 5.1 64 3.0 CALM 0 0 0 0 1030.2 1030.3 0.0
23/04:30pm 12.6 11.6 5.5 62 3.3 CALM 0 0 0 0 1030.2 1030.3 0.0
23/04:00pm 13.4 12.3 5.1 57 3.9 CALM 0 0 0 0 1030.2 1030.3 0.0
23/03:30pm 13.7 12.8 6.1 60 3.7 CALM 0 0 0 0 1030.3 1030.4 0.0
23/03:00pm 13.8 12.8 5.7 58 3.8 CALM 0 6 0 3 1030.2 1030.3 0.0
23/02:30pm 13.6 12.2 5.5 58 3.8 W 2 13 1 7 1030.3 1030.4 0.0
23/02:00pm 13.2 11.4 5.4 59 3.7 W 4 11 2 6 1030.5 1030.6 0.0
23/01:30pm 13.3 11.6 5.7 60 3.6 NE 4 9 2 5 1030.7 1030.8 0.0
23/01:00pm 12.8 11.4 5.5 61 3.4 N 2 9 1 5 1031.0 1031.1 0.0
23/12:30pm 12.4 10.9 5.1 61 3.4 N 2 7 1 4 1031.5 1031.6 0.0
23/12:00pm 11.3 9.0 5.0 65 2.9 NNE 6 11 3 6 1031.9 1032.0 0.0
23/11:30am 10.5 8.2 5.9 73 2.1 ENE 7 11 4 6 1032.3 1032.4 0.0
23/11:00am 9.8 7.6 6.3 79 1.6 ENE 7 11 4 6 1032.4 1032.5 0.0
23/10:30am 8.7 6.8 6.7 87 0.9 E 6 9 3 5 1032.8 1033.0 0.0
23/10:00am 7.6 5.6 6.9 95 0.3 ESE 7 11 4 6 1033.0 1033.2 0.0
23/09:30am 6.8 4.3 6.7 99 0.0 SE 9 13 5 7 1033.1 1033.3 0.0
23/09:00am 5.5 3.3 5.4 99 0.0 SSE 6 9 3 5 1032.9 1033.1 0.0
23/08:30am 3.0 1.5 2.9 99 0.0 CALM 0 0 0 0 1032.6 1032.7 0.0
23/08:00am 1.9 0.2 1.8 99 0.0 CALM 0 0 0 0 1032.5 1032.6 0.0
23/07:30am 2.3 0.7 2.2 99 0.0 CALM 0 0 0 0 1032.2 1032.3 0.0
23/07:00am 1.1 -0.7 1.0 99 0.0 CALM 0 0 0 0 1032.0 1032.1 0.0
23/06:30am 2.4 0.8 2.3 99 0.0 CALM 0 0 0 0 1031.8 1031.9 0.0
23/06:00am 2.5 0.9 2.4 99 0.0 CALM 0 0 0 0 1031.7 1031.8 0.0
23/05:30am 2.3 0.7 2.2 99 0.0 CALM 0 0 0 0 1031.6 1031.7 0.0
23/05:00am 2.5 0.9 2.4 99 0.0 CALM 0 0 0 0 1031.4 1031.5 0.0
23/04:30am 2.7 0.3 2.4 98 0.1 SSE 4 7 2 4 1031.3 1031.4 0.0
23/04:00am 2.7 -0.1 2.3 97 0.2 S 6 9 3 5 1031.2 1031.3 0.0
23/03:30am 3.5 2.0 2.8 95 0.3 CALM 0 0 0 0 1031.4 1031.5 0.0
23/03:00am 4.1 2.6 3.1 93 0.4 CALM 0 6 0 3 1031.4 1031.5 0.0
23/02:30am 4.8 2.3 3.8 93 0.4 SSE 6 7 3 4 1031.6 1031.7 0.0
23/02:00am 4.9 3.5 3.6 91 0.5 CALM 0 6 0 3 1031.7 1031.8 0.0
23/01:30am 5.1 2.3 3.4 89 0.7 SSE 7 9 4 5 1031.6 1031.7 0.0
23/01:00am 5.4 2.2 3.3 86 0.9 SSE 9 15 5 8 1031.7 1031.8 0.0
23/12:30am 6.9 2.8 4.2 83 1.2 SSE 15 19 8 10 1031.7 1031.8 0.0
23/12:00am 7.2 2.3 4.2 81 1.3 SSE 19 24 10 13 1031.8 1031.9 0.0
 
Date/Time
EST
Temp
°C
App
Temp
°C
Dew
Point
Rel
Hum
%
Delta-T
°C
Wind Press
QNH
hPa
Press
MSL
hPa
Rain
since 9 am
mm
Dir
 
Spd
km/h
Gust
km/h
Spd
kts
Gust
kts
22/11:30pm 7.5 3.4 4.6 82 1.3 SSE 15 24 8 13 1032.0 1032.1 0.0

Other Formats:

Comma delimited format used in spreadsheet applications
http://www.bom.gov.au/fwo/IDV60801/IDV60801.95827.axf

JavaScript Object Notation format (JSON) in row-major order
http://www.bom.gov.au/fwo/IDV60801/IDV60801.95827.json